Time;durP1;ratioP1;P1;durP2;ratioP2;P2;SDS_P1;SDS_P2;PMS_P1;PMS_P2;Temp;Humidity;BMP_temperature;BMP_pressure;BME280_temperature;BME280_humidity;BME280_pressure;Samples;Min_cycle;Max_cycle;Signal;HPM_P1;HPM_P2
2022/08/17 00:00:48;;;;;;;5.72;4.20;;;;;;;28.69;39.48;99100.81;5131904;27;20031;-37
2022/08/17 00:03:18;;;;;;;8.57;4.68;;;;;;;29.12;38.57;99102.22;5132227;27;20027;-37
2022/08/17 00:05:49;;;;;;;4.80;4.30;;;;;;;28.53;39.87;99102.63;5132631;27;20027;-37
2022/08/17 00:08:19;;;;;;;5.13;3.88;;;;;;;28.41;39.64;99103.38;5132391;27;20026;-37
2022/08/17 00:10:45;;;;;;;5.75;4.07;;;;;;;28.24;40.55;99102.41;5131875;27;20276;-37
2022/08/17 00:13:20;;;;;;;5.93;4.18;;;;;;;28.24;40.27;99102.41;5131730;27;20019;-37
2022/08/17 00:15:46;;;;;;;5.63;4.13;;;;;;;28.36;39.78;99098.09;5132064;27;20026;-37
2022/08/17 00:18:12;;;;;;;6.07;4.20;;;;;;;28.79;38.80;99099.59;5132048;27;20053;-37
2022/08/17 00:20:38;;;;;;;4.93;3.75;;;;;;;28.18;39.92;99092.00;5132165;27;20022;-37
2022/08/17 00:23:06;;;;;;;6.72;4.07;;;;;;;28.15;39.99;99095.44;5131540;27;20019;-37
2022/08/17 00:25:32;;;;;;;5.07;3.95;;;;;;;28.10;40.21;99101.09;5131711;27;20565;-37
2022/08/17 00:27:58;;;;;;;6.88;3.92;;;;;;;28.14;40.23;99093.81;5131735;27;20025;-37
2022/08/17 00:30:23;;;;;;;4.60;3.88;;;;;;;28.34;39.54;99089.44;5131539;27;20386;-37
2022/08/17 00:32:49;;;;;;;6.97;4.05;;;;;;;29.02;38.11;99098.00;5131089;27;20047;-37
2022/08/17 00:35:18;;;;;;;6.18;4.00;;;;;;;28.29;39.82;99101.38;5131727;27;20125;-37
2022/08/17 00:37:43;;;;;;;7.80;4.15;;;;;;;28.14;39.94;99102.84;5131457;27;20018;-36
2022/08/17 00:40:13;;;;;;;7.18;3.80;;;;;;;28.24;39.98;99096.94;5131522;27;20083;-37
2022/08/17 00:42:39;;;;;;;5.63;3.72;;;;;;;28.36;39.81;99098.09;5130956;27;20495;-37
2022/08/17 00:45:06;;;;;;;6.32;3.70;;;;;;;28.28;39.78;99092.38;5131567;27;20435;-37
2022/08/17 00:47:32;;;;;;;5.70;3.90;;;;;;;28.46;39.35;99106.69;5131449;27;20023;-37
2022/08/17 00:49:57;;;;;;;7.70;4.43;;;;;;;27.96;40.49;99088.50;5131394;27;20019;-36
2022/08/17 00:52:31;;;;;;;4.45;3.83;;;;;;;27.86;40.84;99091.63;5131355;27;20023;-36
2022/08/17 00:54:57;;;;;;;5.95;3.80;;;;;;;27.87;40.85;99104.97;5131027;27;20027;-36
2022/08/17 00:57:28;;;;;;;5.18;3.97;;;;;;;28.02;40.75;99100.03;5131400;27;20076;-36
2022/08/17 01:00:00;;;;;;;5.05;4.05;;;;;;;28.25;40.07;99104.03;5130614;27;20034;-37
2022/08/17 01:02:27;;;;;;;4.47;3.80;;;;;;;28.14;40.34;99102.84;5131202;27;20073;-36
2022/08/17 01:04:53;;;;;;;5.45;4.05;;;;;;;27.81;41.10;99100.03;5131001;27;20027;-37
2022/08/17 01:07:22;;;;;;;6.90;3.90;;;;;;;27.80;41.11;99092.97;5131153;27;20029;-37
2022/08/17 01:09:47;;;;;;;7.88;4.10;;;;;;;27.90;41.04;99105.47;5131228;27;20132;-37
2022/08/17 01:12:13;;;;;;;4.90;3.90;;;;;;;28.13;40.59;99108.63;5130724;27;20035;-37
2022/08/17 01:14:39;;;;;;;5.72;3.50;;;;;;;28.13;40.64;99111.38;5130840;27;20026;-36
2022/08/17 01:17:05;;;;;;;5.50;4.20;;;;;;;28.56;39.59;99112.88;5130461;27;20122;-37
2022/08/17 01:19:34;;;;;;;6.88;3.90;;;;;;;28.05;40.63;99104.84;5130980;27;20068;-37
2022/08/17 01:22:13;;;;;;;5.15;3.70;;;;;;;27.95;40.69;99100.59;5130994;27;20031;-37
2022/08/17 01:24:44;;;;;;;5.57;4.00;;;;;;;28.04;40.71;99103.22;5130965;27;20055;-37
2022/08/17 01:27:12;;;;;;;5.25;4.20;;;;;;;28.15;40.58;99103.63;5130636;27;20504;-36
2022/08/17 01:29:42;;;;;;;5.43;3.80;;;;;;;28.30;40.34;99103.00;5130921;27;20098;-37
2022/08/17 01:32:08;;;;;;;7.30;3.95;;;;;;;28.40;39.91;99105.28;5130320;27;20121;-36
2022/08/17 01:34:33;;;;;;;6.78;4.22;;;;;;;27.96;40.86;99102.19;5130614;27;20103;-37
2022/08/17 01:36:59;;;;;;;4.72;3.70;;;;;;;27.88;40.98;99094.81;5130430;27;20756;-37
2022/08/17 01:39:42;;;;;;;5.18;3.78;;;;;;;27.83;41.22;99087.63;5130785;27;20109;-37
2022/08/17 01:42:17;;;;;;;6.88;4.13;;;;;;;27.90;41.10;99089.06;5130542;27;20023;-37
2022/08/17 01:44:43;;;;;;;7.88;3.70;;;;;;;27.99;40.85;99092.53;5130501;27;20027;-37
2022/08/17 01:47:08;;;;;;;5.57;3.85;;;;;;;28.05;40.65;99091.19;5130211;27;20035;-37
2022/08/17 01:49:34;;;;;;;4.72;3.70;;;;;;;27.63;41.42;99096.63;5130552;27;20027;-37
2022/08/17 01:52:08;;;;;;;5.90;3.78;;;;;;;27.67;41.33;99081.19;5130435;28;20027;-37
2022/08/17 01:54:36;;;;;;;5.43;3.53;;;;;;;27.70;41.42;99080.50;5130620;27;20019;-37
2022/08/17 01:57:02;;;;;;;4.68;3.60;;;;;;;27.81;41.16;99080.91;5130423;27;20079;-37
2022/08/17 01:59:28;;;;;;;8.70;4.00;;;;;;;27.72;41.31;99085.63;5130299;27;20019;-37
2022/08/17 02:01:53;;;;;;;5.60;3.70;;;;;;;27.58;41.41;99089.44;5130985;27;20098;-36
2022/08/17 02:04:19;;;;;;;6.35;4.10;;;;;;;27.42;41.93;99086.50;5131052;27;20023;-36
2022/08/17 02:06:44;;;;;;;7.00;4.07;;;;;;;27.45;42.05;99083.06;5131286;27;20050;-37
2022/08/17 02:09:10;;;;;;;6.30;3.88;;;;;;;27.53;41.74;99081.44;5130906;27;20027;-37
2022/08/17 02:11:38;;;;;;;7.13;3.80;;;;;;;27.53;41.66;99075.97;5132416;27;20026;-37
2022/08/17 02:14:05;;;;;;;10.00;3.80;;;;;;;27.52;41.95;99079.84;5134937;27;20026;-37
2022/08/17 02:16:32;;;;;;;6.93;3.70;;;;;;;27.90;40.83;99072.66;5134990;27;20033;-37
2022/08/17 02:19:00;;;;;;;5.00;3.80;;;;;;;27.31;42.30;99074.34;5134680;27;20374;-37
2022/08/17 02:21:26;;;;;;;6.63;3.90;;;;;;;27.16;42.77;99072.16;5134773;27;20427;-37
2022/08/17 02:23:52;;;;;;;5.25;3.90;;;;;;;27.11;42.85;99081.34;5134638;27;20104;-37
2022/08/17 02:26:17;;;;;;;6.53;4.00;;;;;;;27.19;42.76;99075.03;5135019;27;20102;-37
2022/08/17 02:28:43;;;;;;;7.30;4.10;;;;;;;27.35;42.27;99082.69;5134931;27;20478;-37
2022/08/17 02:31:11;;;;;;;5.97;3.65;;;;;;;27.37;42.10;99078.47;5134464;27;20423;-37
2022/08/17 02:33:38;;;;;;;9.15;3.90;;;;;;;27.39;42.16;99081.69;5134810;27;20702;-37
2022/08/17 02:36:07;;;;;;;7.53;3.97;;;;;;;27.11;42.99;99076.69;5134625;27;20067;-38
2022/08/17 02:38:33;;;;;;;9.80;4.00;;;;;;;27.05;43.26;99086.19;5134786;27;20423;-37
2022/08/17 02:40:59;;;;;;;7.65;4.13;;;;;;;27.07;43.21;99083.13;5134088;27;20490;-37
2022/08/17 02:43:26;;;;;;;7.18;4.70;;;;;;;27.31;42.63;99079.81;5134275;27;20028;-37
2022/08/17 02:45:52;;;;;;;9.60;4.40;;;;;;;27.49;41.97;99084.03;5134674;27;20118;-37
2022/08/17 02:48:18;;;;;;;5.22;3.92;;;;;;;27.25;42.34;99064.75;5134616;27;20030;-37
2022/08/17 02:50:44;;;;;;;8.73;4.28;;;;;;;27.04;43.15;99089.25;5134419;27;20072;-37
2022/08/17 02:53:09;;;;;;;7.88;4.28;;;;;;;27.03;43.19;99093.09;5134375;27;20055;-37
2022/08/17 02:55:38;;;;;;;8.02;3.92;;;;;;;27.15;43.21;99093.22;5133192;27;20458;-37
2022/08/17 02:58:05;;;;;;;8.45;4.35;;;;;;;27.18;42.82;99080.84;5134043;27;20027;-37
2022/08/17 03:00:34;;;;;;;5.45;3.90;;;;;;;27.31;42.50;99088.00;5134614;27;20031;-37
2022/08/17 03:03:02;;;;;;;5.47;3.80;;;;;;;27.49;42.06;99094.16;5133894;27;20031;-37
2022/08/17 03:05:30;;;;;;;9.60;3.97;;;;;;;27.78;41.30;99087.03;5134151;27;20383;-37
2022/08/17 03:07:56;;;;;;;6.13;4.40;;;;;;;27.53;41.94;99091.56;5134520;27;20030;-37
2022/08/17 03:10:23;;;;;;;7.40;4.40;;;;;;;27.21;42.81;99099.31;5134087;27;20027;-35
2022/08/17 03:12:50;;;;;;;5.13;4.20;;;;;;;27.05;43.10;99091.66;5133601;27;20019;-37
2022/08/17 03:15:25;;;;;;;6.90;3.90;;;;;;;26.95;43.25;99083.03;5133946;27;20446;-37
2022/08/17 03:17:51;;;;;;;8.50;4.40;;;;;;;27.08;43.22;99095.66;5134053;27;20030;-37
2022/08/17 03:20:18;;;;;;;5.97;3.90;;;;;;;27.14;43.03;99105.25;5133893;27;20034;-37
2022/08/17 03:22:47;;;;;;;8.65;4.50;;;;;;;27.12;43.22;99107.53;5132511;27;20030;-37
2022/08/17 03:25:15;;;;;;;6.03;4.63;;;;;;;26.98;43.28;99096.84;5133847;27;20023;-37
2022/08/17 03:27:41;;;;;;;8.10;4.30;;;;;;;26.89;43.55;99105.06;5134042;27;20448;-37
2022/08/17 03:30:09;;;;;;;8.05;4.65;;;;;;;26.97;43.51;99097.97;5133558;27;20106;-37
2022/08/17 03:32:46;;;;;;;7.22;4.32;;;;;;;26.98;43.36;99104.22;5133343;27;20063;-37
2022/08/17 03:35:15;;;;;;;6.38;4.65;;;;;;;26.90;43.56;99103.13;5133387;27;20402;-37
2022/08/17 03:37:40;;;;;;;8.73;4.60;;;;;;;26.99;43.55;99105.81;5133360;27;20281;-37
2022/08/17 03:40:07;;;;;;;6.65;4.40;;;;;;;26.85;43.85;99104.13;5133825;27;20027;-37
2022/08/17 03:42:36;;;;;;;6.45;4.50;;;;;;;26.81;43.83;99110.56;5133243;27;20089;-37
2022/08/17 03:45:03;;;;;;;8.18;4.70;;;;;;;26.76;43.88;99110.75;5132962;27;20059;-36
2022/08/17 03:56:41;;;;;;;7.15;4.45;;;;;;;26.75;44.49;99112.66;5133658;27;20082;-36
2022/08/17 03:58:36;;;;;;;12.50;4.38;;;;;;;26.77;43.76;99113.16;5132555;27;20046;-37
2022/08/17 04:01:02;;;;;;;9.02;4.60;;;;;;;26.85;43.41;99125.16;5132652;27;20055;-37
2022/08/17 04:03:28;;;;;;;15.63;4.65;;;;;;;27.01;43.47;99123.47;5133115;27;20038;-37
2022/08/17 04:05:53;;;;;;;8.40;4.55;;;;;;;27.23;42.87;99133.31;5132602;27;20027;-43
2022/08/17 04:08:19;;;;;;;6.25;4.63;;;;;;;27.39;42.67;99141.78;5133094;27;20585;-42
2022/08/17 04:10:45;;;;;;;7.80;4.45;;;;;;;27.48;42.57;99137.06;5132647;27;20023;-45
2022/08/17 04:13:10;;;;;;;8.10;4.63;;;;;;;27.52;42.91;99145.41;5132887;27;20025;-44
2022/08/17 04:15:36;;;;;;;16.52;9.07;;;;;;;27.73;42.75;99145.44;5132938;27;20023;-44
2022/08/17 04:18:01;;;;;;;14.65;6.13;;;;;;;27.81;42.57;99151.97;5132939;27;20042;-44
2022/08/17 04:20:27;;;;;;;9.27;5.55;;;;;;;28.08;41.70;99147.91;5133057;27;20026;-42
2022/08/17 04:22:55;;;;;;;9.57;4.57;;;;;;;28.07;41.47;99147.13;5132561;27;20038;-43
2022/08/17 04:25:21;;;;;;;7.57;4.45;;;;;;;28.40;40.98;99154.53;5131946;27;20038;-44
2022/08/17 04:27:50;;;;;;;8.05;4.32;;;;;;;28.69;40.63;99155.56;5132072;27;20034;-42
2022/08/17 04:30:15;;;;;;;7.15;4.50;;;;;;;28.80;40.16;99166.88;5133671;27;20110;-43
2022/08/17 04:33:04;;;;;;;7.10;4.43;;;;;;;29.15;39.62;99161.00;5152792;27;20050;-43
2022/08/17 04:35:33;;;;;;;11.98;4.68;;;;;;;29.26;39.25;99164.09;5152356;27;20058;-41
2022/08/17 04:37:59;;;;;;;8.02;4.50;;;;;;;29.05;39.58;99156.75;5151678;27;20060;-41
2022/08/17 04:43:17;;;;;;;8.35;4.55;;;;;;;29.26;38.71;99155.88;5153117;27;20054;-42
2022/08/17 04:45:45;;;;;;;10.40;4.32;;;;;;;29.29;38.67;99164.22;5153121;27;20058;-41
2022/08/17 04:48:11;;;;;;;6.57;4.35;;;;;;;29.27;38.79;99152.03;5152485;27;20058;-42
2022/08/17 04:50:42;;;;;;;6.10;4.40;;;;;;;29.53;38.31;99168.91;5153311;27;20501;-43
2022/08/17 04:53:08;;;;;;;8.98;4.40;;;;;;;29.54;37.74;99161.47;5152868;27;20019;-41
2022/08/17 04:55:33;;;;;;;7.95;4.68;;;;;;;29.92;37.50;99166.56;5153135;27;20045;-43
2022/08/17 04:57:58;;;;;;;7.55;4.90;;;;;;;30.11;37.24;99159.66;5146882;27;20486;-43
2022/08/17 05:00:24;;;;;;;7.45;4.80;;;;;;;30.60;36.17;99170.44;5131643;27;20088;-46
2022/08/17 05:02:52;;;;;;;6.47;4.10;;;;;;;30.74;35.96;99162.56;5131861;27;20038;-42
2022/08/17 05:05:33;;;;;;;4.63;3.85;;;;;;;31.04;35.70;99164.91;5132256;27;20122;-44
2022/08/17 05:08:01;;;;;;;6.53;4.00;;;;;;;31.30;34.76;99169.06;5131930;27;20027;-44
2022/08/17 05:10:30;;;;;;;6.65;4.13;;;;;;;31.07;34.78;99147.75;5131865;27;20079;-45
2022/08/17 05:13:01;;;;;;;9.45;3.92;;;;;;;31.50;34.00;99170.75;5131484;27;20024;-45
2022/08/17 05:15:28;;;;;;;8.10;4.10;;;;;;;31.55;33.80;99175.97;5131708;27;20054;-43
2022/08/17 05:17:54;;;;;;;8.48;3.85;;;;;;;31.70;33.64;99177.09;5131922;27;20119;-42
2022/08/17 05:20:19;;;;;;;5.78;3.90;;;;;;;31.84;33.45;99176.59;5136346;27;20050;-44
2022/08/17 05:22:57;;;;;;;6.18;4.05;;;;;;;32.38;32.66;99177.72;5136014;27;20053;-45
2022/08/17 05:25:28;;;;;;;13.75;4.78;;;;;;;32.16;33.04;99179.28;5131723;27;20033;-45
2022/08/17 05:27:55;;;;;;;8.63;4.00;;;;;;;32.12;33.02;99178.38;5132001;27;20385;-43
2022/08/17 05:30:21;;;;;;;7.65;3.95;;;;;;;32.05;32.89;99181.78;5131443;27;20041;-43
2022/08/17 05:33:02;;;;;;;6.45;3.83;;;;;;;31.72;33.65;99179.47;5130976;27;20047;-43
2022/08/17 05:35:30;;;;;;;6.68;3.58;;;;;;;32.12;32.68;99186.63;5131731;27;20027;-43
2022/08/17 05:37:56;;;;;;;7.72;3.83;;;;;;;32.79;31.71;99189.16;5131728;27;20030;-44
2022/08/17 05:40:22;;;;;;;5.50;3.97;;;;;;;32.89;31.58;99183.00;5132671;27;20030;-42
2022/08/17 05:42:48;;;;;;;5.00;3.65;;;;;;;33.21;30.95;99180.03;5130765;27;20030;-42
2022/08/17 05:45:17;;;;;;;6.88;3.70;;;;;;;33.52;30.71;99189.16;5144910;27;20458;-44
2022/08/17 05:47:44;;;;;;;6.93;3.75;;;;;;;33.27;30.64;99186.81;5151638;27;20466;-45
2022/08/17 05:50:18;;;;;;;5.68;3.70;;;;;;;33.47;30.71;99192.22;5152246;27;20034;-43
2022/08/17 05:52:48;;;;;;;6.03;3.80;;;;;;;33.22;31.01;99181.63;5151611;27;20109;-44
2022/08/17 05:55:32;;;;;;;7.10;3.85;;;;;;;33.75;30.22;99183.59;5152077;27;20049;-44
2022/08/17 05:58:27;;;;;;;7.15;4.10;;;;;;;34.28;29.46;99183.53;5145073;27;20123;-43
2022/08/17 06:01:07;;;;;;;10.57;4.10;;;;;;;34.42;29.62;99188.44;5130269;28;20034;-45
2022/08/17 06:03:59;;;;;;;6.95;4.18;;;;;;;34.66;29.26;99191.81;5130629;27;20023;-44
2022/08/17 06:06:38;;;;;;;9.23;3.67;;;;;;;34.70;29.31;99200.19;5131394;27;20027;-44
2022/08/17 06:09:28;;;;;;;7.43;4.10;;;;;;;33.95;29.69;99197.25;5131223;27;20034;-46
2022/08/17 06:12:30;;;;;;;5.25;3.85;;;;;;;33.80;29.75;99197.09;5148214;27;20087;-45
2022/08/17 06:15:26;;;;;;;8.38;4.00;;;;;;;33.39;30.57;99199.59;5151756;27;20054;-44
2022/08/17 06:17:59;;;;;;;6.32;3.70;;;;;;;34.21;29.66;99200.00;5151918;27;20461;-42
2022/08/17 06:20:30;;;;;;;8.05;3.85;;;;;;;34.93;29.06;99202.75;5151709;27;20062;-42
2022/08/17 06:23:03;;;;;;;8.25;4.38;;;;;;;34.52;28.84;99198.00;5131674;27;20028;-43
2022/08/17 06:25:33;;;;;;;5.10;3.90;;;;;;;34.42;29.08;99193.94;5129441;27;20023;-43
2022/08/17 06:28:07;;;;;;;8.82;4.40;;;;;;;34.59;29.20;99198.06;5129970;27;20496;-45
2022/08/17 06:30:43;;;;;;;8.57;5.60;;;;;;;34.69;28.86;99198.56;5129386;27;20027;-43
2022/08/17 06:33:22;;;;;;;8.13;3.95;;;;;;;35.15;28.51;99198.22;5127630;27;20067;-43
2022/08/17 06:36:11;;;;;;;7.43;4.40;;;;;;;35.40;27.77;99204.75;5127881;27;20098;-44
2022/08/17 06:38:48;;;;;;;10.93;4.38;;;;;;;35.37;27.75;99199.97;5129282;27;20040;-42
2022/08/17 06:41:33;;;;;;;12.90;4.25;;;;;;;35.65;27.52;99203.34;5129542;27;20102;-44
2022/08/17 06:44:14;;;;;;;8.98;3.80;;;;;;;34.76;28.77;99201.41;5129973;27;20030;-46
2022/08/17 06:46:47;;;;;;;6.80;4.00;;;;;;;34.91;28.54;99205.91;5130006;27;20030;-44
2022/08/17 06:49:27;;;;;;;6.30;3.55;;;;;;;35.63;27.78;99198.97;5130769;27;20027;-43
2022/08/17 06:52:06;;;;;;;7.65;3.75;;;;;;;35.67;27.20;99198.22;5130968;27;20031;-42
2022/08/17 06:54:54;;;;;;;7.70;3.78;;;;;;;36.33;26.58;99189.88;5130624;27;20183;-42
2022/08/17 06:57:29;;;;;;;5.40;3.50;;;;;;;36.14;26.77;99193.75;5130594;27;20027;-45
2022/08/17 06:59:56;;;;;;;9.27;4.60;;;;;;;36.35;26.43;99184.75;5134114;27;20038;-45
2022/08/17 07:02:37;;;;;;;14.63;4.70;;;;;;;36.51;26.30;99192.69;5134306;27;20043;-43
2022/08/17 07:05:04;;;;;;;6.35;3.85;;;;;;;36.84;26.39;99188.78;5134744;27;20557;-45
2022/08/17 07:10:19;;;;;;;9.20;3.80;;;;;;;36.67;26.10;99195.94;5134526;27;20091;-45
2022/08/17 07:12:45;;;;;;;6.13;3.70;;;;;;;36.84;26.26;99188.00;5133866;27;20506;-45
2022/08/17 07:15:23;;;;;;;5.97;3.80;;;;;;;36.74;26.11;99195.91;5134330;27;20102;-43
2022/08/17 07:17:49;;;;;;;6.45;3.80;;;;;;;37.26;25.79;99189.22;5133463;27;20027;-44
2022/08/17 07:20:19;;;;;;;7.20;3.90;;;;;;;37.51;25.33;99190.00;5133578;27;20145;-48
2022/08/17 07:23:15;;;;;;;6.65;3.75;;;;;;;37.42;25.51;99184.06;5132984;27;20038;-45
2022/08/17 07:25:40;;;;;;;10.38;3.63;;;;;;;37.10;25.71;99195.16;5134104;27;20051;-44
2022/08/17 07:28:06;;;;;;;7.57;3.30;;;;;;;37.44;25.46;99190.00;5134048;27;20050;-46
2022/08/17 07:30:47;;;;;;;8.43;3.55;;;;;;;37.91;24.96;99192.72;5134187;27;20121;-44
2022/08/17 07:33:26;;;;;;;7.32;3.55;;;;;;;38.36;24.06;99192.91;5131643;27;20575;-44
2022/08/17 07:35:52;;;;;;;;;;;;;;;38.00;24.91;99192.25;5134483;27;20039;-45
2022/08/17 07:38:19;;;;;;;8.25;3.95;;;;;;;36.57;26.47;99186.34;5133475;27;19907;-45
2022/08/17 07:40:56;;;;;;;6.22;4.03;;;;;;;37.08;26.17;99192.78;5132932;27;20033;-47
2022/08/17 07:43:42;;;;;;;12.48;4.82;;;;;;;37.82;24.99;99184.00;5132611;27;20023;-47
2022/08/17 07:49:06;;;;;;;7.43;3.97;;;;;;;37.68;25.07;99182.88;5133543;27;20042;-43
2022/08/17 07:51:35;;;;;;;9.35;3.83;;;;;;;38.51;24.55;99191.63;5133293;27;20450;-44
2022/08/17 07:54:24;;;;;;;6.70;3.80;;;;;;;38.31;24.80;99190.56;5133146;27;20060;-45
2022/08/17 07:56:53;;;;;;;10.90;5.22;;;;;;;38.56;23.96;99181.31;5122443;27;20035;-44
2022/08/17 07:59:39;;;;;;;6.50;4.40;;;;;;;38.02;24.93;99187.88;5133275;27;20359;-46
2022/08/17 08:02:25;;;;;;;8.23;3.80;;;;;;;38.58;24.34;99176.16;5132759;27;20099;-44
2022/08/17 08:05:03;;;;;;;5.03;3.80;;;;;;;38.68;24.01;99180.84;5112571;28;20080;-43
2022/08/17 08:07:41;;;;;;;8.02;4.00;;;;;;;39.09;23.05;99189.28;5112845;28;20084;-44
2022/08/17 08:10:34;;;;;;;7.80;4.28;;;;;;;38.92;23.77;99185.44;5112316;27;20063;-44
2022/08/17 08:13:12;;;;;;;6.68;4.13;;;;;;;38.89;23.80;99183.47;5112124;28;20024;-45
2022/08/17 08:15:47;;;;;;;9.35;3.90;;;;;;;38.38;23.81;99171.06;5112509;28;20027;-44
2022/08/17 08:18:34;;;;;;;5.70;3.40;;;;;;;38.70;23.76;99179.22;5111695;28;20028;-46
2022/08/17 08:21:08;;;;;;;12.43;3.88;;;;;;;38.90;23.14;99167.59;5113291;27;20051;-45
2022/08/17 08:23:39;;;;;;;6.18;3.78;;;;;;;38.42;23.58;99166.28;5132178;27;20027;-45
2022/08/17 08:26:25;;;;;;;4.75;3.50;;;;;;;38.79;23.21;99170.44;5132276;27;20026;-43
2022/08/17 08:29:21;;;;;;;6.20;3.50;;;;;;;38.99;22.50;99170.69;5132139;27;20064;-45
2022/08/17 08:32:15;;;;;;;6.45;3.58;;;;;;;38.94;22.55;99159.19;5132144;27;20083;-43
2022/08/17 08:35:11;;;;;;;6.57;3.50;;;;;;;39.11;22.93;99158.28;5132004;27;20437;-43
2022/08/17 08:37:50;;;;;;;5.95;3.60;;;;;;;39.21;22.22;99162.19;5131225;27;20087;-45
2022/08/17 08:40:34;;;;;;;11.43;5.78;;;;;;;38.31;22.91;99151.69;5132935;27;20023;-47
2022/08/17 08:43:11;;;;;;;5.55;4.10;;;;;;;38.25;23.06;99150.50;5142065;27;20038;-43
2022/08/17 08:46:03;;;;;;;7.00;4.22;;;;;;;38.43;22.58;99147.63;5152594;27;20023;-43
2022/08/17 08:48:34;;;;;;;7.53;4.50;;;;;;;38.02;22.69;99146.22;5113273;27;20043;-44
2022/08/17 08:51:07;;;;;;;6.15;4.00;;;;;;;38.27;22.57;99146.16;5153225;27;20027;-43
2022/08/17 08:54:09;;;;;;;7.53;3.80;;;;;;;38.65;22.32;99149.09;5152186;27;20072;-44
2022/08/17 08:57:01;;;;;;;7.28;3.25;;;;;;;38.25;22.05;99144.97;5152204;27;20027;-45
2022/08/17 08:59:49;;;;;;;5.68;3.42;;;;;;;38.55;21.75;99147.19;5132790;27;20368;-43
2022/08/17 09:02:39;;;;;;;8.60;3.67;;;;;;;38.27;22.47;99143.38;5115905;27;20451;-44
2022/08/17 09:05:52;;;;;;;4.15;3.40;;;;;;;38.36;22.48;99136.56;5151880;27;20073;-42
2022/08/17 09:08:59;;;;;;;7.78;3.28;;;;;;;38.84;22.35;99144.19;5103410;27;20144;-44
2022/08/17 09:11:34;;;;;;;4.65;3.50;;;;;;;39.17;21.69;99139.19;5130896;27;20041;-42
2022/08/17 09:14:17;;;;;;;7.22;3.90;;;;;;;39.63;21.00;99135.13;5152647;27;20015;-43
2022/08/17 09:16:59;;;;;;;7.95;3.50;;;;;;;39.23;21.33;99135.53;5135077;27;20030;-43
2022/08/17 09:19:34;;;;;;;5.57;3.10;;;;;;;38.88;20.89;99131.84;5129411;27;20458;-44
2022/08/17 09:22:10;;;;;;;4.80;2.97;;;;;;;38.78;20.71;99126.38;5130299;27;20098;-44
2022/08/17 09:24:45;;;;;;;7.88;3.10;;;;;;;38.34;21.00;99128.63;5129344;27;20130;-44
2022/08/17 09:27:18;;;;;;;6.15;3.30;;;;;;;38.79;20.93;99125.97;5128964;27;20497;-44
2022/08/17 09:29:50;;;;;;;4.22;3.20;;;;;;;38.78;20.93;99127.16;5131381;27;20080;-44
2022/08/17 09:32:21;;;;;;;5.57;3.53;;;;;;;39.30;20.60;99132.66;5130974;27;20493;-45
2022/08/17 09:34:59;;;;;;;10.52;3.38;;;;;;;38.17;21.71;99127.53;5129810;27;20015;-46
2022/08/17 09:37:52;;;;;;;4.97;3.30;;;;;;;38.10;21.96;99127.59;5131229;27;20031;-44
2022/08/17 09:40:24;;;;;;;4.10;2.88;;;;;;;38.59;21.00;99119.38;5130151;27;20058;-45
2022/08/17 09:43:14;;;;;;;8.68;3.40;;;;;;;38.81;21.25;99117.22;5130720;27;20126;-42
2022/08/17 09:45:57;;;;;;;5.10;3.15;;;;;;;39.09;21.43;99122.56;5131270;27;20080;-45
2022/08/17 09:48:22;;;;;;;13.70;3.50;;;;;;;38.33;20.95;99119.50;5130483;27;20039;-38
2022/08/17 09:51:00;;;;;;;6.95;3.10;;;;;;;38.22;21.24;99109.69;5131374;27;20020;-45
2022/08/17 09:53:25;;;;;;;5.30;3.10;;;;;;;38.18;21.42;99106.91;5131289;27;20026;-43
2022/08/17 09:56:17;;;;;;;6.95;3.70;;;;;;;38.48;21.39;99111.88;5131483;27;20023;-37
2022/08/17 09:59:15;;;;;;;6.75;4.13;;;;;;;38.88;20.60;99108.78;5123767;28;20428;-45
2022/08/17 10:01:44;;;;;;;6.28;4.60;;;;;;;39.11;20.78;99111.00;5131570;28;20023;-37
2022/08/17 10:04:12;;;;;;;8.95;4.75;;;;;;;39.03;21.17;99110.28;5131561;27;20024;-44
2022/08/17 10:06:48;;;;;;;6.53;4.15;;;;;;;39.12;20.38;99106.25;5131090;27;20045;-44
2022/08/17 10:09:28;;;;;;;5.40;3.60;;;;;;;38.52;20.58;99103.53;5130647;27;20046;-43
2022/08/17 10:12:18;;;;;;;4.90;3.40;;;;;;;38.78;20.18;99102.13;5130888;27;20164;-45
2022/08/17 10:15:03;;;;;;;9.30;6.20;;;;;;;39.03;20.22;99101.16;5131057;27;20156;-43
2022/08/17 10:17:38;;;;;;;9.73;7.00;;;;;;;39.17;20.18;99101.00;5131332;27;20027;-42
2022/08/17 10:20:28;;;;;;;10.05;5.55;;;;;;;39.46;19.55;99101.50;5130739;27;20038;-38
2022/08/17 10:28:35;;;;;;;6.22;3.25;;;;;;;39.28;19.43;99092.53;5131689;27;20023;-45
2022/08/17 10:31:03;;;;;;;5.90;3.10;;;;;;;38.80;19.90;99082.25;5130388;27;20140;-45
2022/08/17 10:33:44;;;;;;;7.85;3.35;;;;;;;38.87;20.41;99082.22;5133229;27;20031;-44
2022/08/17 10:36:21;;;;;;;4.22;3.25;;;;;;;39.40;20.29;99086.44;5134138;27;20031;-44
2022/08/17 10:39:09;;;;;;;7.80;3.40;;;;;;;39.30;20.61;99082.59;5134589;27;20027;-47
2022/08/17 10:41:44;;;;;;;8.20;4.00;;;;;;;39.65;19.94;99080.59;5134655;27;20107;-44
2022/08/17 10:44:20;;;;;;;6.43;4.50;;;;;;;39.21;20.65;99084.28;5134352;27;20626;-43
2022/08/17 10:47:10;;;;;;;5.18;3.50;;;;;;;38.97;20.92;99084.09;5134649;27;20027;-45
2022/08/17 10:49:46;;;;;;;10.77;5.40;;;;;;;38.82;20.78;99080.66;5133016;27;20313;-43
2022/08/17 10:52:26;;;;;;;7.75;4.20;;;;;;;38.92;21.50;99071.44;5133923;27;20034;-46
2022/08/17 10:54:55;;;;;;;4.93;3.40;;;;;;;39.18;20.41;99071.19;5132879;27;20152;-46
2022/08/17 10:57:32;;;;;;;5.20;2.80;;;;;;;39.05;20.47;99066.19;5133820;27;20031;-43
2022/08/17 11:00:19;;;;;;;5.85;3.83;;;;;;;39.22;20.21;99066.38;5133923;27;20102;-45
2022/08/17 11:02:51;;;;;;;4.18;3.17;;;;;;;38.47;21.09;99062.28;5133446;27;20068;-43
2022/08/17 11:05:29;;;;;;;5.15;3.10;;;;;;;38.87;20.88;99060.75;5131984;27;20094;-46
2022/08/17 11:08:19;;;;;;;7.13;3.00;;;;;;;39.22;20.81;99060.81;5131685;27;20413;-44
2022/08/17 11:11:09;;;;;;;6.10;2.80;;;;;;;39.49;20.54;99058.16;5131895;27;20114;-45
2022/08/17 11:13:47;;;;;;;5.10;3.40;;;;;;;38.95;20.30;99055.13;5131847;27;20034;-44
2022/08/17 11:17:00;;;;;;;3.75;2.80;;;;;;;39.69;19.71;99058.28;5131622;27;20023;-43
2022/08/17 11:19:50;;;;;;;7.90;2.90;;;;;;;38.67;20.32;99055.00;5132745;27;20106;-45
2022/08/17 11:22:29;;;;;;;5.00;2.80;;;;;;;39.48;19.61;99051.00;5132978;27;20027;-48
2022/08/17 11:24:54;;;;;;;;;;;;;;;40.11;18.77;99036.66;5133814;27;20102;-45
2022/08/17 11:27:22;;;;;;;4.78;2.85;;;;;;;39.57;19.49;99034.59;5133006;27;19942;-43
2022/08/17 11:29:48;;;;;;;;;;;;;;;39.33;19.35;99036.44;5133914;27;20084;-43
2022/08/17 11:32:40;;;;;;;5.00;2.70;;;;;;;39.62;19.60;99028.56;5132928;27;19916;-46
2022/08/17 11:35:13;;;;;;;5.68;3.42;;;;;;;39.59;18.69;99034.97;5133088;27;20346;-46
2022/08/17 11:37:51;;;;;;;6.95;3.38;;;;;;;39.96;18.89;99026.94;5133342;27;20029;-45
2022/08/17 11:40:45;;;;;;;4.55;3.25;;;;;;;40.18;18.31;99021.84;5133146;27;20106;-45
2022/08/17 11:43:32;;;;;;;7.70;3.92;;;;;;;40.09;18.57;99016.78;5114656;27;20329;-43
2022/08/17 11:46:15;;;;;;;5.82;2.92;;;;;;;39.18;19.09;99029.47;5132199;27;20107;-44
2022/08/17 11:51:59;;;;;;;6.10;2.72;;;;;;;39.49;19.15;99019.22;5133585;27;20069;-45
2022/08/17 11:54:31;;;;;;;3.17;2.58;;;;;;;39.28;18.40;99021.03;5133073;27;20068;-47
2022/08/17 11:56:58;;;;;;;6.97;2.80;;;;;;;39.06;19.17;99019.69;5132855;27;20027;-47
2022/08/17 11:59:38;;;;;;;4.53;2.40;;;;;;;39.09;18.73;99016.09;5132714;27;20027;-46
2022/08/17 12:02:18;;;;;;;2.83;2.40;;;;;;;39.20;18.96;99018.72;5132414;27;20177;-46
2022/08/17 12:05:32;;;;;;;5.35;2.47;;;;;;;38.43;19.66;99019.84;5132751;27;20023;-47
2022/08/17 12:08:03;;;;;;;4.75;3.00;;;;;;;39.30;18.87;99010.25;5097769;27;20490;-45
2022/08/17 12:10:31;;;;;;;4.60;2.50;;;;;;;39.80;18.36;99011.63;5132763;27;20027;-48
2022/08/17 12:13:13;;;;;;;5.50;3.05;;;;;;;39.61;18.64;99006.72;5132509;27;20106;-44
2022/08/17 12:15:47;;;;;;;3.72;2.53;;;;;;;39.64;18.39;98997.53;5132407;27;20023;-45
2022/08/17 12:18:23;;;;;;;3.85;2.50;;;;;;;39.97;18.67;98993.09;5132307;27;20027;-47
2022/08/17 12:21:17;;;;;;;3.17;2.50;;;;;;;39.29;18.55;98989.19;5132314;27;20046;-46
2022/08/17 12:24:12;;;;;;;4.95;2.70;;;;;;;39.22;18.14;98988.50;5132066;27;20054;-47
2022/08/17 12:26:38;;;;;;;4.30;2.45;;;;;;;39.59;18.22;98992.44;5132253;27;20026;-47
2022/08/17 12:29:10;;;;;;;3.33;2.70;;;;;;;39.85;17.79;98996.41;5132148;27;20026;-46
2022/08/17 12:31:43;;;;;;;3.63;2.72;;;;;;;40.00;18.29;98997.03;5132168;27;20456;-43